Time,TemperatureF,DewpointF,PressureIn,WindDirection,WindDirectionDegrees,WindSpeedMPH,WindSpeedGustMPH,Humidity,HourlyPrecipIn,Conditions,Clouds,dailyrainin,SoftwareType,DateUTC
2013-04-26 00:05:00,50.5,44.2,30.18,SSW,202,0.0,-999.0,79,-99.99,,,0.00,Acu-Link.com,2013-04-26 04:05:00,
2013-04-26 00:20:00,50.0,44.4,30.17,SSW,202,0.0,-999.0,81,-99.99,,,0.00,Acu-Link.com,2013-04-26 04:20:00,
2013-04-26 00:36:00,49.3,44.7,30.18,SSW,202,0.0,-999.0,84,-99.99,,,0.00,Acu-Link.com,2013-04-26 04:36:00,
2013-04-26 00:51:00,48.4,42.5,30.19,SSW,202,0.0,-999.0,80,-99.99,,,0.00,Acu-Link.com,2013-04-26 04:51:00,
2013-04-26 01:07:00,47.8,41.3,30.19,South,180,0.0,-999.0,78,-99.99,,,0.00,Acu-Link.com,2013-04-26 05:07:00,
2013-04-26 01:22:00,47.3,41.4,30.19,SSW,202,0.0,-999.0,80,-99.99,,,0.00,Acu-Link.com,2013-04-26 05:22:00,
2013-04-26 01:38:00,46.9,42.9,30.19,South,180,0.0,-999.0,86,-99.99,,,0.00,Acu-Link.com,2013-04-26 05:38:00,
2013-04-26 01:53:00,46.4,43.3,30.19,South,180,0.0,-999.0,89,-99.99,,,0.00,Acu-Link.com,2013-04-26 05:53:00,
2013-04-26 02:08:00,45.7,42.6,30.19,SSE,157,0.0,-999.0,89,-99.99,,,0.00,Acu-Link.com,2013-04-26 06:08:00,
2013-04-26 02:24:00,45.3,42.3,30.19,West,270,0.0,-999.0,89,-99.99,,,0.00,Acu-Link.com,2013-04-26 06:24:00,
2013-04-26 02:39:00,44.8,41.5,30.18,SSE,157,0.0,-999.0,88,-99.99,,,0.00,Acu-Link.com,2013-04-26 06:39:00,
2013-04-26 02:54:00,44.1,41.1,30.18,South,180,0.0,-999.0,89,-99.99,,,0.00,Acu-Link.com,2013-04-26 06:54:00,
2013-04-26 03:10:00,43.7,40.4,30.18,SSW,202,0.0,-999.0,88,-99.99,,,0.00,Acu-Link.com,2013-04-26 07:10:00,
2013-04-26 03:25:00,43.3,40.3,30.19,SSW,202,0.0,-999.0,89,-99.99,,,0.00,Acu-Link.com,2013-04-26 07:25:00,
2013-04-26 03:40:00,43.2,40.5,30.19,NE,45,0.0,-999.0,90,-99.99,,,0.00,Acu-Link.com,2013-04-26 07:40:00,
2013-04-26 03:55:00,42.8,40.9,30.19,WNW,292,0.0,-999.0,93,-99.99,,,0.00,Acu-Link.com,2013-04-26 07:55:00,
2013-04-26 04:11:00,42.8,40.6,30.19,WNW,292,0.0,-999.0,92,-99.99,,,0.00,Acu-Link.com,2013-04-26 08:11:00,
2013-04-26 04:26:00,42.6,40.2,30.19,SSW,202,0.0,-999.0,91,-99.99,,,0.00,Acu-Link.com,2013-04-26 08:26:00,
2013-04-26 04:41:00,42.3,39.9,30.19,NNW,337,0.0,-999.0,91,-99.99,,,0.00,Acu-Link.com,2013-04-26 08:41:00,
2013-04-26 04:56:00,41.9,39.5,30.19,NNW,337,0.0,-999.0,91,-99.99,,,0.00,Acu-Link.com,2013-04-26 08:56:00,
2013-04-26 05:11:00,41.5,38.8,30.19,NW,315,0.0,-999.0,90,-99.99,,,0.00,Acu-Link.com,2013-04-26 09:11:00,
2013-04-26 05:27:00,41.2,38.5,30.20,SSW,202,0.0,-999.0,90,-99.99,,,0.00,Acu-Link.com,2013-04-26 09:27:00,
2013-04-26 05:42:00,41.0,38.6,30.20,SSW,202,0.0,-999.0,91,-99.99,,,0.00,Acu-Link.com,2013-04-26 09:42:00,
2013-04-26 05:57:00,40.6,38.2,30.21,SW,225,0.0,-999.0,91,-99.99,,,0.00,Acu-Link.com,2013-04-26 09:57:00,
2013-04-26 06:13:00,40.6,38.5,30.22,South,180,0.0,-999.0,92,-99.99,,,0.00,Acu-Link.com,2013-04-26 10:13:00,
2013-04-26 06:28:00,40.5,38.6,30.23,SSW,202,0.0,-999.0,93,-99.99,,,0.00,Acu-Link.com,2013-04-26 10:28:00,
2013-04-26 06:43:00,40.1,38.5,30.24,SSW,202,0.0,-999.0,94,-99.99,,,0.00,Acu-Link.com,2013-04-26 10:43:00,
2013-04-26 06:59:00,39.9,38.6,30.25,ESE,112,0.0,-999.0,95,-99.99,,,0.00,Acu-Link.com,2013-04-26 10:59:00,
2013-04-26 07:14:00,40.3,39.3,30.26,SSW,202,0.0,-999.0,96,-99.99,,,0.00,Acu-Link.com,2013-04-26 11:14:00,
2013-04-26 07:29:00,40.3,39.3,30.26,NNW,337,0.0,-999.0,96,-99.99,,,0.00,Acu-Link.com,2013-04-26 11:29:00,
2013-04-26 07:44:00,41.0,39.7,30.27,ESE,112,0.0,-999.0,95,-99.99,,,0.00,Acu-Link.com,2013-04-26 11:44:00,
2013-04-26 08:00:00,41.7,40.6,30.28,SW,225,0.0,-999.0,96,-99.99,,,0.00,Acu-Link.com,2013-04-26 12:00:00,
2013-04-26 08:15:00,43.3,42.0,30.29,SW,225,0.0,-999.0,95,-99.99,,,0.00,Acu-Link.com,2013-04-26 12:15:00,
2013-04-26 08:30:00,48.2,43.9,30.30,NNE,22,2.2,-999.0,85,-99.99,,,0.00,Acu-Link.com,2013-04-26 12:30:00,
2013-04-26 08:45:00,51.6,40.6,30.30,NNW,337,0.0,-999.0,66,-99.99,,,0.00,Acu-Link.com,2013-04-26 12:45:00,
2013-04-26 09:01:00,55.0,37.2,30.31,SE,135,0.0,-999.0,51,-99.99,,,0.00,Acu-Link.com,2013-04-26 13:01:00,
2013-04-26 09:16:00,57.0,37.0,30.31,SW,225,0.0,-999.0,47,-99.99,,,0.00,Acu-Link.com,2013-04-26 13:16:00,
2013-04-26 09:31:00,59.2,37.3,30.31,East,90,3.7,-999.0,44,-99.99,,,0.00,Acu-Link.com,2013-04-26 13:31:00,
2013-04-26 09:46:00,59.9,36.8,30.31,SSE,157,0.0,-999.0,42,-99.99,,,0.00,Acu-Link.com,2013-04-26 13:46:00,
2013-04-26 10:02:00,61.3,36.1,30.32,NNW,337,3.7,-999.0,39,-99.99,,,0.00,Acu-Link.com,2013-04-26 14:02:00,
2013-04-26 10:17:00,62.6,36.0,30.32,South,180,2.2,-999.0,37,-99.99,,,0.00,Acu-Link.com,2013-04-26 14:17:00,
2013-04-26 10:32:00,64.0,34.3,30.32,NE,45,3.2,-999.0,33,-99.99,,,0.00,Acu-Link.com,2013-04-26 14:32:00,
2013-04-26 10:47:00,63.1,34.3,30.32,SSE,157,2.2,-999.0,34,-99.99,,,0.00,Acu-Link.com,2013-04-26 14:47:00,
2013-04-26 11:03:00,64.8,35.0,30.31,East,90,3.7,-999.0,33,-99.99,,,0.00,Acu-Link.com,2013-04-26 15:03:00,
2013-04-26 11:18:00,65.8,35.9,30.31,East,90,2.2,-999.0,33,-99.99,,,0.00,Acu-Link.com,2013-04-26 15:18:00,
2013-04-26 11:33:00,65.7,35.0,30.32,ESE,112,4.2,-999.0,32,-99.99,,,0.00,Acu-Link.com,2013-04-26 15:33:00,
2013-04-26 11:48:00,66.4,36.4,30.31,SE,135,2.2,-999.0,33,-99.99,,,0.00,Acu-Link.com,2013-04-26 15:48:00,
2013-04-26 12:04:00,67.6,37.5,30.31,SSE,157,0.0,-999.0,33,-99.99,,,0.00,Acu-Link.com,2013-04-26 16:04:00,
2013-04-26 12:19:00,66.6,35.0,30.31,East,90,2.2,-999.0,31,-99.99,,,0.00,Acu-Link.com,2013-04-26 16:19:00,
2013-04-26 12:34:00,68.0,37.0,30.31,SSW,202,0.0,-999.0,32,-99.99,,,0.00,Acu-Link.com,2013-04-26 16:34:00,
2013-04-26 12:49:00,68.5,35.8,30.30,SE,135,3.2,-999.0,30,-99.99,,,0.00,Acu-Link.com,2013-04-26 16:49:00,
2013-04-26 13:04:00,70.7,38.6,30.30,South,180,2.2,-999.0,31,-99.99,,,0.00,Acu-Link.com,2013-04-26 17:04:00,
2013-04-26 13:20:00,69.8,37.8,30.29,NE,45,1.7,-999.0,31,-99.99,,,0.00,Acu-Link.com,2013-04-26 17:20:00,
2013-04-26 13:35:00,70.2,36.4,30.29,ENE,67,2.2,-999.0,29,-99.99,,,0.00,Acu-Link.com,2013-04-26 17:35:00,
2013-04-26 13:51:00,70.9,38.7,30.29,ESE,112,1.7,-999.0,31,-99.99,,,0.00,Acu-Link.com,2013-04-26 17:51:00,
2013-04-26 14:06:00,72.0,38.9,30.28,NW,315,1.7,-999.0,30,-99.99,,,0.00,Acu-Link.com,2013-04-26 18:06:00,
2013-04-26 14:21:00,72.5,37.5,30.28,NNW,337,0.0,-999.0,28,-99.99,,,0.00,Acu-Link.com,2013-04-26 18:21:00,
2013-04-26 14:36:00,74.1,41.5,30.28,WSW,247,1.7,-999.0,31,-99.99,,,0.00,Acu-Link.com,2013-04-26 18:36:00,
2013-04-26 14:52:00,73.4,37.4,30.27,NNE,22,0.0,-999.0,27,-99.99,,,0.00,Acu-Link.com,2013-04-26 18:52:00,
2013-04-26 15:07:00,72.9,38.8,30.26,NE,45,0.0,-999.0,29,-99.99,,,0.00,Acu-Link.com,2013-04-26 19:07:00,
2013-04-26 15:23:00,73.0,41.4,30.25,West,270,0.0,-999.0,32,-99.99,,,0.00,Acu-Link.com,2013-04-26 19:23:00,
2013-04-26 15:38:00,73.4,40.1,30.24,SSE,157,1.7,-999.0,30,-99.99,,,0.00,Acu-Link.com,2013-04-26 19:38:00,
2013-04-26 15:53:00,72.0,38.0,30.23,ESE,112,0.0,-999.0,29,-99.99,,,0.00,Acu-Link.com,2013-04-26 19:53:00,
2013-04-26 16:09:00,75.7,42.1,30.23,SW,225,0.0,-999.0,30,-99.99,,,0.00,Acu-Link.com,2013-04-26 20:09:00,
2013-04-26 16:24:00,76.3,37.9,30.21,West,270,0.0,-999.0,25,-99.99,,,0.00,Acu-Link.com,2013-04-26 20:24:00,
2013-04-26 16:39:00,73.4,40.1,30.21,East,90,0.0,-999.0,30,-99.99,,,0.00,Acu-Link.com,2013-04-26 20:39:00,
2013-04-26 16:55:00,73.9,43.0,30.21,West,270,0.0,-999.0,33,-99.99,,,0.00,Acu-Link.com,2013-04-26 20:55:00,
2013-04-26 17:10:00,73.8,42.1,30.20,SSE,157,0.0,-999.0,32,-99.99,,,0.00,Acu-Link.com,2013-04-26 21:10:00,
2013-04-26 17:25:00,73.4,42.5,30.21,SSE,157,0.0,-999.0,33,-99.99,,,0.00,Acu-Link.com,2013-04-26 21:25:00,
2013-04-26 17:41:00,73.2,43.9,30.20,East,90,0.0,-999.0,35,-99.99,,,0.00,Acu-Link.com,2013-04-26 21:41:00,
2013-04-26 17:56:00,71.6,43.9,30.21,SSW,202,0.0,-999.0,37,-99.99,,,0.00,Acu-Link.com,2013-04-26 21:56:00,
2013-04-26 18:11:00,70.9,43.3,30.20,South,180,0.0,-999.0,37,-99.99,,,0.00,Acu-Link.com,2013-04-26 22:11:00,
2013-04-26 18:26:00,70.2,41.3,30.20,SSW,202,0.0,-999.0,35,-99.99,,,0.00,Acu-Link.com,2013-04-26 22:26:00,
2013-04-26 18:42:00,69.6,41.5,30.20,West,270,0.0,-999.0,36,-99.99,,,0.00,Acu-Link.com,2013-04-26 22:42:00,
2013-04-26 18:57:00,68.9,41.5,30.21,SW,225,0.0,-999.0,37,-99.99,,,0.00,Acu-Link.com,2013-04-26 22:57:00,
2013-04-26 19:12:00,68.2,41.6,30.21,WNW,292,0.0,-999.0,38,-99.99,,,0.00,Acu-Link.com,2013-04-26 23:12:00,
2013-04-26 19:28:00,67.6,42.4,30.22,SW,225,0.0,-999.0,40,-99.99,,,0.00,Acu-Link.com,2013-04-26 23:28:00,
2013-04-26 19:43:00,66.2,42.4,30.22,SSW,202,0.0,-999.0,42,-99.99,,,0.00,Acu-Link.com,2013-04-26 23:43:00,
2013-04-26 20:14:00,64.0,44.5,30.23,SW,225,0.0,-999.0,49,-99.99,,,0.00,Acu-Link.com,2013-04-27 00:14:00,
2013-04-26 20:29:00,63.3,45.9,30.25,West,270,0.0,-999.0,53,-99.99,,,0.00,Acu-Link.com,2013-04-27 00:29:00,
2013-04-26 20:44:00,62.1,46.2,30.24,SSW,202,0.0,-999.0,56,-99.99,,,0.00,Acu-Link.com,2013-04-27 00:44:00,
2013-04-26 21:00:00,61.0,46.6,30.23,SSW,202,0.0,-999.0,59,-99.99,,,0.00,Acu-Link.com,2013-04-27 01:00:00,
2013-04-26 21:15:00,60.6,46.2,30.23,SSW,202,0.0,-999.0,59,-99.99,,,0.00,Acu-Link.com,2013-04-27 01:15:00,
2013-04-26 21:30:00,59.4,47.6,30.23,SSE,157,0.0,-999.0,65,-99.99,,,0.00,Acu-Link.com,2013-04-27 01:30:00,
2013-04-26 21:46:00,58.6,46.9,30.22,SW,225,0.0,-999.0,65,-99.99,,,0.00,Acu-Link.com,2013-04-27 01:46:00,
2013-04-26 22:01:00,58.1,48.0,30.22,SW,225,0.0,-999.0,69,-99.99,,,0.00,Acu-Link.com,2013-04-27 02:01:00,
2013-04-26 22:16:00,57.6,47.1,30.21,South,180,0.0,-999.0,68,-99.99,,,0.00,Acu-Link.com,2013-04-27 02:16:00,
2013-04-26 22:31:00,57.2,48.3,30.21,WSW,247,0.0,-999.0,72,-99.99,,,0.00,Acu-Link.com,2013-04-27 02:31:00,
2013-04-26 22:47:00,56.8,48.2,30.21,West,270,0.0,-999.0,73,-99.99,,,0.00,Acu-Link.com,2013-04-27 02:47:00,
2013-04-26 23:02:00,57.0,48.8,30.21,West,270,0.0,-999.0,74,-99.99,,,0.00,Acu-Link.com,2013-04-27 03:02:00,
2013-04-26 23:18:00,57.2,49.7,30.21,NNW,337,0.0,-999.0,76,-99.99,,,0.00,Acu-Link.com,2013-04-27 03:18:00,
2013-04-26 23:33:00,57.4,49.5,30.22,NNW,337,0.0,-999.0,75,-99.99,,,0.00,Acu-Link.com,2013-04-27 03:33:00,
2013-04-26 23:48:00,57.4,50.2,30.23,NNW,337,0.0,-999.0,77,-99.99,,,0.00,Acu-Link.com,2013-04-27 03:48:00,